sensor_id;sensor_type;location;lat;lon;timestamp;temperature;humidity
71208;DHT22;58938;49.868;8.646;2022-11-12T00:02:18;10.90;73.40
71208;DHT22;58938;49.868;8.646;2022-11-12T00:04:44;10.90;73.40
71208;DHT22;58938;49.868;8.646;2022-11-12T00:07:09;10.90;73.30
71208;DHT22;58938;49.868;8.646;2022-11-12T00:09:35;10.80;73.30
71208;DHT22;58938;49.868;8.646;2022-11-12T00:12:00;10.80;73.40
71208;DHT22;58938;49.868;8.646;2022-11-12T00:14:26;10.80;73.30
71208;DHT22;58938;49.868;8.646;2022-11-12T00:16:51;10.80;73.40
71208;DHT22;58938;49.868;8.646;2022-11-12T00:19:17;10.80;73.50
71208;DHT22;58938;49.868;8.646;2022-11-12T00:21:42;10.80;73.50
71208;DHT22;58938;49.868;8.646;2022-11-12T00:24:08;10.90;73.60
71208;DHT22;58938;49.868;8.646;2022-11-12T00:26:33;10.90;73.60
71208;DHT22;58938;49.868;8.646;2022-11-12T00:28:59;10.90;73.50
71208;DHT22;58938;49.868;8.646;2022-11-12T00:31:24;10.80;73.50
71208;DHT22;58938;49.868;8.646;2022-11-12T00:33:50;10.80;73.40
71208;DHT22;58938;49.868;8.646;2022-11-12T00:36:16;10.80;73.50
71208;DHT22;58938;49.868;8.646;2022-11-12T00:38:41;10.80;73.50
71208;DHT22;58938;49.868;8.646;2022-11-12T00:41:07;10.80;73.50
71208;DHT22;58938;49.868;8.646;2022-11-12T00:43:32;10.80;73.30
71208;DHT22;58938;49.868;8.646;2022-11-12T00:45:58;10.70;73.10
71208;DHT22;58938;49.868;8.646;2022-11-12T00:48:23;10.70;73.10
71208;DHT22;58938;49.868;8.646;2022-11-12T00:50:49;10.60;73.10
71208;DHT22;58938;49.868;8.646;2022-11-12T00:53:14;10.50;73.00
71208;DHT22;58938;49.868;8.646;2022-11-12T00:55:40;10.50;73.20
71208;DHT22;58938;49.868;8.646;2022-11-12T00:58:05;10.50;73.20
71208;DHT22;58938;49.868;8.646;2022-11-12T01:00:31;10.50;73.10
71208;DHT22;58938;49.868;8.646;2022-11-12T01:02:57;10.40;73.20
71208;DHT22;58938;49.868;8.646;2022-11-12T01:05:22;10.40;73.20
71208;DHT22;58938;49.868;8.646;2022-11-12T01:07:48;10.40;73.30
71208;DHT22;58938;49.868;8.646;2022-11-12T01:10:14;10.40;73.40
71208;DHT22;58938;49.868;8.646;2022-11-12T01:12:39;10.40;73.30
71208;DHT22;58938;49.868;8.646;2022-11-12T01:15:05;10.40;73.30
71208;DHT22;58938;49.868;8.646;2022-11-12T01:17:31;10.30;73.30
71208;DHT22;58938;49.868;8.646;2022-11-12T01:19:57;10.30;73.30
71208;DHT22;58938;49.868;8.646;2022-11-12T01:22:23;10.30;73.40
71208;DHT22;58938;49.868;8.646;2022-11-12T01:24:48;10.20;73.30
71208;DHT22;58938;49.868;8.646;2022-11-12T01:27:14;10.20;73.30
71208;DHT22;58938;49.868;8.646;2022-11-12T01:29:39;10.10;73.40
71208;DHT22;58938;49.868;8.646;2022-11-12T01:32:05;10.10;73.40
71208;DHT22;58938;49.868;8.646;2022-11-12T01:34:32;10.10;73.50
71208;DHT22;58938;49.868;8.646;2022-11-12T01:36:57;10.10;73.60
71208;DHT22;58938;49.868;8.646;2022-11-12T01:39:23;10.10;73.60
71208;DHT22;58938;49.868;8.646;2022-11-12T01:41:48;10.10;73.60
71208;DHT22;58938;49.868;8.646;2022-11-12T01:46:57;10.10;73.70
71208;DHT22;58938;49.868;8.646;2022-11-12T01:52:29;10.10;73.60
71208;DHT22;58938;49.868;8.646;2022-11-12T01:55:00;10.10;73.80
71208;DHT22;58938;49.868;8.646;2022-11-12T01:57:32;10.10;73.70
71208;DHT22;58938;49.868;8.646;2022-11-12T02:00:03;10.10;73.80
71208;DHT22;58938;49.868;8.646;2022-11-12T02:02:30;10.20;73.80
71208;DHT22;58938;49.868;8.646;2022-11-12T02:04:56;10.20;73.80
71208;DHT22;58938;49.868;8.646;2022-11-12T02:07:22;10.20;73.60
71208;DHT22;58938;49.868;8.646;2022-11-12T02:09:49;10.20;73.70
71208;DHT22;58938;49.868;8.646;2022-11-12T02:12:14;10.20;73.70
71208;DHT22;58938;49.868;8.646;2022-11-12T02:15:00;10.10;73.70
71208;DHT22;58938;49.868;8.646;2022-11-12T02:17:26;10.10;73.70
71208;DHT22;58938;49.868;8.646;2022-11-12T02:19:52;10.10;73.70
71208;DHT22;58938;49.868;8.646;2022-11-12T02:22:18;10.10;73.70
71208;DHT22;58938;49.868;8.646;2022-11-12T02:24:43;10.20;73.80
71208;DHT22;58938;49.868;8.646;2022-11-12T02:27:10;10.20;73.90
71208;DHT22;58938;49.868;8.646;2022-11-12T02:29:36;10.20;74.00
71208;DHT22;58938;49.868;8.646;2022-11-12T02:32:11;10.20;73.90
71208;DHT22;58938;49.868;8.646;2022-11-12T02:34:36;10.20;73.70
71208;DHT22;58938;49.868;8.646;2022-11-12T02:37:04;10.20;73.80
71208;DHT22;58938;49.868;8.646;2022-11-12T02:39:29;10.20;73.80
71208;DHT22;58938;49.868;8.646;2022-11-12T02:41:55;10.20;73.70
71208;DHT22;58938;49.868;8.646;2022-11-12T02:44:20;10.20;73.80
71208;DHT22;58938;49.868;8.646;2022-11-12T02:46:46;10.20;73.70
71208;DHT22;58938;49.868;8.646;2022-11-12T02:49:11;10.20;73.70
71208;DHT22;58938;49.868;8.646;2022-11-12T02:51:37;10.20;73.80
71208;DHT22;58938;49.868;8.646;2022-11-12T02:54:03;10.20;73.80
71208;DHT22;58938;49.868;8.646;2022-11-12T02:56:28;10.30;73.90
71208;DHT22;58938;49.868;8.646;2022-11-12T02:58:54;10.30;73.70
71208;DHT22;58938;49.868;8.646;2022-11-12T03:01:19;10.20;73.60
71208;DHT22;58938;49.868;8.646;2022-11-12T03:03:45;10.20;73.50
71208;DHT22;58938;49.868;8.646;2022-11-12T03:06:11;10.20;73.50
71208;DHT22;58938;49.868;8.646;2022-11-12T03:08:36;10.20;73.60
71208;DHT22;58938;49.868;8.646;2022-11-12T03:11:09;10.20;73.50
71208;DHT22;58938;49.868;8.646;2022-11-12T03:13:36;10.20;73.40
71208;DHT22;58938;49.868;8.646;2022-11-12T03:16:01;10.20;73.50
71208;DHT22;58938;49.868;8.646;2022-11-12T03:18:27;10.10;73.40
71208;DHT22;58938;49.868;8.646;2022-11-12T03:20:52;10.10;73.40
71208;DHT22;58938;49.868;8.646;2022-11-12T03:23:18;10.10;73.40
71208;DHT22;58938;49.868;8.646;2022-11-12T03:25:43;10.10;73.50
71208;DHT22;58938;49.868;8.646;2022-11-12T03:28:14;10.10;73.50
71208;DHT22;58938;49.868;8.646;2022-11-12T03:30:41;10.10;73.50
71208;DHT22;58938;49.868;8.646;2022-11-12T03:33:09;10.10;73.60
71208;DHT22;58938;49.868;8.646;2022-11-12T03:35:35;10.10;73.60
71208;DHT22;58938;49.868;8.646;2022-11-12T03:38:02;10.10;73.60
71208;DHT22;58938;49.868;8.646;2022-11-12T03:40:28;10.20;73.70
71208;DHT22;58938;49.868;8.646;2022-11-12T03:42:54;10.20;73.70
71208;DHT22;58938;49.868;8.646;2022-11-12T03:45:22;10.20;73.60
71208;DHT22;58938;49.868;8.646;2022-11-12T03:47:53;10.20;73.50
71208;DHT22;58938;49.868;8.646;2022-11-12T03:50:20;10.20;73.40
71208;DHT22;58938;49.868;8.646;2022-11-12T03:52:48;10.20;73.50
71208;DHT22;58938;49.868;8.646;2022-11-12T03:55:16;10.20;73.50
71208;DHT22;58938;49.868;8.646;2022-11-12T03:57:42;10.10;73.60
71208;DHT22;58938;49.868;8.646;2022-11-12T04:00:08;10.20;73.50
71208;DHT22;58938;49.868;8.646;2022-11-12T04:02:35;10.10;73.40
71208;DHT22;58938;49.868;8.646;2022-11-12T04:05:00;10.10;73.30
71208;DHT22;58938;49.868;8.646;2022-11-12T04:08:10;10.10;73.30
71208;DHT22;58938;49.868;8.646;2022-11-12T04:10:52;10.10;73.30
71208;DHT22;58938;49.868;8.646;2022-11-12T04:13:18;10.10;73.40
71208;DHT22;58938;49.868;8.646;2022-11-12T04:16:03;10.10;73.40
71208;DHT22;58938;49.868;8.646;2022-11-12T04:18:49;10.10;73.30
71208;DHT22;58938;49.868;8.646;2022-11-12T04:21:43;10.10;73.40
71208;DHT22;58938;49.868;8.646;2022-11-12T04:24:20;10.10;73.30
71208;DHT22;58938;49.868;8.646;2022-11-12T04:27:06;10.10;73.40
71208;DHT22;58938;49.868;8.646;2022-11-12T04:29:32;10.10;73.40
71208;DHT22;58938;49.868;8.646;2022-11-12T04:32:16;10.10;73.40
71208;DHT22;58938;49.868;8.646;2022-11-12T04:34:42;10.10;73.30
71208;DHT22;58938;49.868;8.646;2022-11-12T04:37:08;10.10;73.10
71208;DHT22;58938;49.868;8.646;2022-11-12T04:39:34;10.10;73.10
71208;DHT22;58938;49.868;8.646;2022-11-12T04:42:00;10.10;73.00
71208;DHT22;58938;49.868;8.646;2022-11-12T04:44:44;10.00;73.00
71208;DHT22;58938;49.868;8.646;2022-11-12T04:47:21;10.00;72.90
71208;DHT22;58938;49.868;8.646;2022-11-12T04:49:47;10.00;72.90
71208;DHT22;58938;49.868;8.646;2022-11-12T04:52:12;10.00;72.80
71208;DHT22;58938;49.868;8.646;2022-11-12T04:54:38;9.90;72.80
71208;DHT22;58938;49.868;8.646;2022-11-12T04:57:04;9.90;72.50
71208;DHT22;58938;49.868;8.646;2022-11-12T04:59:29;9.90;72.60
71208;DHT22;58938;49.868;8.646;2022-11-12T05:01:55;9.90;72.60
71208;DHT22;58938;49.868;8.646;2022-11-12T05:04:20;9.90;72.60
71208;DHT22;58938;49.868;8.646;2022-11-12T05:06:46;9.90;72.70
71208;DHT22;58938;49.868;8.646;2022-11-12T05:09:20;9.90;72.60
71208;DHT22;58938;49.868;8.646;2022-11-12T05:11:46;9.90;72.60
71208;DHT22;58938;49.868;8.646;2022-11-12T05:14:12;9.90;72.50
71208;DHT22;58938;49.868;8.646;2022-11-12T05:16:38;9.80;72.40
71208;DHT22;58938;49.868;8.646;2022-11-12T05:19:04;9.80;72.40
71208;DHT22;58938;49.868;8.646;2022-11-12T05:21:30;9.80;72.20
71208;DHT22;58938;49.868;8.646;2022-11-12T05:24:14;9.80;72.20
71208;DHT22;58938;49.868;8.646;2022-11-12T05:26:39;9.80;72.10
71208;DHT22;58938;49.868;8.646;2022-11-12T05:29:05;9.80;72.20
71208;DHT22;58938;49.868;8.646;2022-11-12T05:31:31;9.80;72.30
71208;DHT22;58938;49.868;8.646;2022-11-12T05:33:56;9.80;72.20
71208;DHT22;58938;49.868;8.646;2022-11-12T05:36:22;9.80;72.30
71208;DHT22;58938;49.868;8.646;2022-11-12T05:38:48;9.80;72.30
71208;DHT22;58938;49.868;8.646;2022-11-12T05:41:13;9.80;72.20
71208;DHT22;58938;49.868;8.646;2022-11-12T05:43:39;9.80;72.20
71208;DHT22;58938;49.868;8.646;2022-11-12T05:46:04;9.80;72.20
71208;DHT22;58938;49.868;8.646;2022-11-12T05:48:30;9.80;72.20
71208;DHT22;58938;49.868;8.646;2022-11-12T05:50:56;9.80;72.20
71208;DHT22;58938;49.868;8.646;2022-11-12T05:53:21;9.80;72.10
71208;DHT22;58938;49.868;8.646;2022-11-12T05:55:47;9.80;72.20
71208;DHT22;58938;49.868;8.646;2022-11-12T05:58:12;9.90;72.00
71208;DHT22;58938;49.868;8.646;2022-11-12T06:00:38;9.80;72.00
71208;DHT22;58938;49.868;8.646;2022-11-12T06:03:07;9.80;72.00
71208;DHT22;58938;49.868;8.646;2022-11-12T06:05:33;9.80;72.00
71208;DHT22;58938;49.868;8.646;2022-11-12T06:07:59;9.80;72.10
71208;DHT22;58938;49.868;8.646;2022-11-12T06:10:25;9.90;72.10
71208;DHT22;58938;49.868;8.646;2022-11-12T06:12:51;9.90;72.00
71208;DHT22;58938;49.868;8.646;2022-11-12T06:15:17;9.80;71.70
71208;DHT22;58938;49.868;8.646;2022-11-12T06:17:43;9.80;71.70
71208;DHT22;58938;49.868;8.646;2022-11-12T06:20:09;9.80;71.60
71208;DHT22;58938;49.868;8.646;2022-11-12T06:22:34;9.70;71.60
71208;DHT22;58938;49.868;8.646;2022-11-12T06:25:00;9.70;71.70
71208;DHT22;58938;49.868;8.646;2022-11-12T06:27:26;9.70;71.70
71208;DHT22;58938;49.868;8.646;2022-11-12T06:29:51;9.70;71.70
71208;DHT22;58938;49.868;8.646;2022-11-12T06:32:17;9.70;71.70
71208;DHT22;58938;49.868;8.646;2022-11-12T06:34:43;9.70;71.70
71208;DHT22;58938;49.868;8.646;2022-11-12T06:37:08;9.70;71.60
71208;DHT22;58938;49.868;8.646;2022-11-12T06:39:34;9.70;71.60
71208;DHT22;58938;49.868;8.646;2022-11-12T06:41:59;9.70;71.50
71208;DHT22;58938;49.868;8.646;2022-11-12T06:44:26;9.70;71.40
71208;DHT22;58938;49.868;8.646;2022-11-12T06:46:52;9.60;71.40
71208;DHT22;58938;49.868;8.646;2022-11-12T06:49:17;9.60;71.50
71208;DHT22;58938;49.868;8.646;2022-11-12T06:51:43;9.70;71.50
71208;DHT22;58938;49.868;8.646;2022-11-12T06:54:08;9.60;71.40
71208;DHT22;58938;49.868;8.646;2022-11-12T06:56:34;9.60;71.40
71208;DHT22;58938;49.868;8.646;2022-11-12T06:58:59;9.60;71.40
71208;DHT22;58938;49.868;8.646;2022-11-12T07:01:25;9.60;71.50
71208;DHT22;58938;49.868;8.646;2022-11-12T07:03:51;9.60;71.50
71208;DHT22;58938;49.868;8.646;2022-11-12T07:06:18;9.60;71.60
71208;DHT22;58938;49.868;8.646;2022-11-12T07:08:45;9.60;71.50
71208;DHT22;58938;49.868;8.646;2022-11-12T07:11:11;9.60;71.50
71208;DHT22;58938;49.868;8.646;2022-11-12T07:13:37;9.60;71.30
71208;DHT22;58938;49.868;8.646;2022-11-12T07:16:05;9.60;71.30
71208;DHT22;58938;49.868;8.646;2022-11-12T07:18:32;9.60;71.40
71208;DHT22;58938;49.868;8.646;2022-11-12T07:21:06;9.60;71.50
71208;DHT22;58938;49.868;8.646;2022-11-12T07:23:34;9.60;71.50
71208;DHT22;58938;49.868;8.646;2022-11-12T07:26:11;9.70;71.50
71208;DHT22;58938;49.868;8.646;2022-11-12T07:28:37;9.60;71.50
71208;DHT22;58938;49.868;8.646;2022-11-12T07:31:04;9.70;71.50
71208;DHT22;58938;49.868;8.646;2022-11-12T07:33:31;9.70;71.60
71208;DHT22;58938;49.868;8.646;2022-11-12T07:36:04;9.70;71.60
71208;DHT22;58938;49.868;8.646;2022-11-12T07:38:32;9.70;71.50
71208;DHT22;58938;49.868;8.646;2022-11-12T07:41:00;9.70;71.50
71208;DHT22;58938;49.868;8.646;2022-11-12T07:43:29;9.70;71.40
71208;DHT22;58938;49.868;8.646;2022-11-12T07:46:03;9.70;71.60
71208;DHT22;58938;49.868;8.646;2022-11-12T07:48:29;9.70;71.50
71208;DHT22;58938;49.868;8.646;2022-11-12T07:51:19;9.80;71.60
71208;DHT22;58938;49.868;8.646;2022-11-12T07:53:46;9.80;71.60
71208;DHT22;58938;49.868;8.646;2022-11-12T07:56:15;9.80;71.70
71208;DHT22;58938;49.868;8.646;2022-11-12T07:58:40;9.90;71.60
71208;DHT22;58938;49.868;8.646;2022-11-12T08:01:18;9.80;71.60
71208;DHT22;58938;49.868;8.646;2022-11-12T08:03:47;9.80;71.60
71208;DHT22;58938;49.868;8.646;2022-11-12T08:06:12;9.90;71.60
71208;DHT22;58938;49.868;8.646;2022-11-12T08:08:38;9.90;71.60
71208;DHT22;58938;49.868;8.646;2022-11-12T08:11:03;9.90;71.50
71208;DHT22;58938;49.868;8.646;2022-11-12T08:13:29;9.80;71.60
71208;DHT22;58938;49.868;8.646;2022-11-12T08:15:58;9.80;71.50
71208;DHT22;58938;49.868;8.646;2022-11-12T08:18:25;9.80;71.30
71208;DHT22;58938;49.868;8.646;2022-11-12T08:20:50;9.80;71.30
71208;DHT22;58938;49.868;8.646;2022-11-12T08:23:16;9.80;71.30
71208;DHT22;58938;49.868;8.646;2022-11-12T08:25:42;9.80;71.40
71208;DHT22;58938;49.868;8.646;2022-11-12T08:28:07;9.80;71.40
71208;DHT22;58938;49.868;8.646;2022-11-12T08:30:34;9.90;71.40
71208;DHT22;58938;49.868;8.646;2022-11-12T08:33:04;9.90;71.40
71208;DHT22;58938;49.868;8.646;2022-11-12T08:35:31;9.90;71.40
71208;DHT22;58938;49.868;8.646;2022-11-12T08:38:04;9.90;71.40
71208;DHT22;58938;49.868;8.646;2022-11-12T08:40:32;9.90;71.30
71208;DHT22;58938;49.868;8.646;2022-11-12T08:42:59;9.90;71.30
71208;DHT22;58938;49.868;8.646;2022-11-12T08:45:26;9.90;71.40
71208;DHT22;58938;49.868;8.646;2022-11-12T08:47:51;9.90;71.40
71208;DHT22;58938;49.868;8.646;2022-11-12T08:50:17;10.00;71.40
71208;DHT22;58938;49.868;8.646;2022-11-12T08:52:43;10.00;71.50
71208;DHT22;58938;49.868;8.646;2022-11-12T08:55:09;10.00;71.60
71208;DHT22;58938;49.868;8.646;2022-11-12T08:57:41;10.00;71.70
71208;DHT22;58938;49.868;8.646;2022-11-12T09:00:09;10.00;71.60
71208;DHT22;58938;49.868;8.646;2022-11-12T09:02:35;10.00;71.70
71208;DHT22;58938;49.868;8.646;2022-11-12T09:05:00;10.00;71.70
71208;DHT22;58938;49.868;8.646;2022-11-12T09:07:26;10.10;71.70
71208;DHT22;58938;49.868;8.646;2022-11-12T09:09:52;10.10;71.70
71208;DHT22;58938;49.868;8.646;2022-11-12T09:12:17;10.10;71.60
71208;DHT22;58938;49.868;8.646;2022-11-12T09:14:44;10.10;71.70
71208;DHT22;58938;49.868;8.646;2022-11-12T09:17:10;10.10;71.80
71208;DHT22;58938;49.868;8.646;2022-11-12T09:19:36;10.10;71.70
71208;DHT22;58938;49.868;8.646;2022-11-12T09:22:02;10.10;71.70
71208;DHT22;58938;49.868;8.646;2022-11-12T09:24:28;10.10;71.60
71208;DHT22;58938;49.868;8.646;2022-11-12T09:26:54;10.10;71.80
71208;DHT22;58938;49.868;8.646;2022-11-12T09:29:20;10.10;71.80
71208;DHT22;58938;49.868;8.646;2022-11-12T09:31:45;10.20;71.80
71208;DHT22;58938;49.868;8.646;2022-11-12T09:34:11;10.20;71.80
71208;DHT22;58938;49.868;8.646;2022-11-12T09:36:37;10.20;71.90
71208;DHT22;58938;49.868;8.646;2022-11-12T09:39:03;10.20;71.90
71208;DHT22;58938;49.868;8.646;2022-11-12T09:41:31;10.30;71.80
71208;DHT22;58938;49.868;8.646;2022-11-12T09:44:05;10.30;71.80
71208;DHT22;58938;49.868;8.646;2022-11-12T09:46:54;10.30;71.90
71208;DHT22;58938;49.868;8.646;2022-11-12T09:49:22;10.30;72.00
71208;DHT22;58938;49.868;8.646;2022-11-12T09:51:55;10.30;72.00
71208;DHT22;58938;49.868;8.646;2022-11-12T09:54:32;10.40;72.00
71208;DHT22;58938;49.868;8.646;2022-11-12T09:56:58;10.40;72.00
71208;DHT22;58938;49.868;8.646;2022-11-12T09:59:32;10.40;71.90
71208;DHT22;58938;49.868;8.646;2022-11-12T10:10:48;10.40;71.70
71208;DHT22;58938;49.868;8.646;2022-11-12T10:13:33;10.40;71.70
71208;DHT22;58938;49.868;8.646;2022-11-12T10:24:24;10.50;71.70
71208;DHT22;58938;49.868;8.646;2022-11-12T10:26:51;10.50;71.80
71208;DHT22;58938;49.868;8.646;2022-11-12T10:29:31;10.50;71.70
71208;DHT22;58938;49.868;8.646;2022-11-12T10:32:01;10.60;71.60
71208;DHT22;58938;49.868;8.646;2022-11-12T10:34:28;10.60;71.60
71208;DHT22;58938;49.868;8.646;2022-11-12T10:37:03;10.60;71.60
71208;DHT22;58938;49.868;8.646;2022-11-12T10:39:37;10.60;71.70
71208;DHT22;58938;49.868;8.646;2022-11-12T10:42:11;10.60;71.70
71208;DHT22;58938;49.868;8.646;2022-11-12T10:44:38;10.60;71.70
71208;DHT22;58938;49.868;8.646;2022-11-12T10:47:39;10.60;71.60
71208;DHT22;58938;49.868;8.646;2022-11-12T10:52:33;10.60;71.70
71208;DHT22;58938;49.868;8.646;2022-11-12T10:55:35;10.70;71.70
71208;DHT22;58938;49.868;8.646;2022-11-12T11:00:37;10.70;71.70
71208;DHT22;58938;49.868;8.646;2022-11-12T11:05:50;10.70;71.70
71208;DHT22;58938;49.868;8.646;2022-11-12T11:08:35;10.80;71.70
71208;DHT22;58938;49.868;8.646;2022-11-12T11:13:46;10.80;71.70
71208;DHT22;58938;49.868;8.646;2022-11-12T11:18:49;10.80;71.80
71208;DHT22;58938;49.868;8.646;2022-11-12T11:29:49;10.80;71.80
71208;DHT22;58938;49.868;8.646;2022-11-12T11:32:34;10.80;71.80
71208;DHT22;58938;49.868;8.646;2022-11-12T11:38:11;10.90;71.90
71208;DHT22;58938;49.868;8.646;2022-11-12T11:52:10;11.00;72.00
71208;DHT22;58938;49.868;8.646;2022-11-12T11:54:50;11.00;72.00
71208;DHT22;58938;49.868;8.646;2022-11-12T11:57:22;11.10;72.00
71208;DHT22;58938;49.868;8.646;2022-11-12T12:02:45;11.20;72.10
71208;DHT22;58938;49.868;8.646;2022-11-12T12:08:07;11.30;72.10
71208;DHT22;58938;49.868;8.646;2022-11-12T12:10:57;11.30;72.10
71208;DHT22;58938;49.868;8.646;2022-11-12T12:16:25;11.40;72.20
71208;DHT22;58938;49.868;8.646;2022-11-12T12:19:19;11.50;72.20
71208;DHT22;58938;49.868;8.646;2022-11-12T12:21:49;11.50;72.20
71208;DHT22;58938;49.868;8.646;2022-11-12T12:27:01;11.60;72.30
71208;DHT22;58938;49.868;8.646;2022-11-12T12:35:43;11.70;72.30
71208;DHT22;58938;49.868;8.646;2022-11-12T12:37:47;11.70;72.30
71208;DHT22;58938;49.868;8.646;2022-11-12T12:40:34;11.80;72.30
71208;DHT22;58938;49.868;8.646;2022-11-12T12:45:45;11.80;72.20
71208;DHT22;58938;49.868;8.646;2022-11-12T12:48:39;11.80;72.10
71208;DHT22;58938;49.868;8.646;2022-11-12T12:51:06;11.80;72.20
71208;DHT22;58938;49.868;8.646;2022-11-12T12:53:33;11.80;72.20
71208;DHT22;58938;49.868;8.646;2022-11-12T12:56:41;11.80;72.20
71208;DHT22;58938;49.868;8.646;2022-11-12T12:58:52;11.80;72.20
71208;DHT22;58938;49.868;8.646;2022-11-12T13:19:28;12.00;72.30
71208;DHT22;58938;49.868;8.646;2022-11-12T13:32:53;12.00;72.30
71208;DHT22;58938;49.868;8.646;2022-11-12T13:42:47;11.90;72.20
71208;DHT22;58938;49.868;8.646;2022-11-12T13:45:14;11.90;72.30
71208;DHT22;58938;49.868;8.646;2022-11-12T13:47:40;11.80;72.30
71208;DHT22;58938;49.868;8.646;2022-11-12T13:50:09;11.80;72.40
71208;DHT22;58938;49.868;8.646;2022-11-12T13:52:38;11.80;72.40
71208;DHT22;58938;49.868;8.646;2022-11-12T13:55:16;11.80;72.50
71208;DHT22;58938;49.868;8.646;2022-11-12T13:57:51;11.80;72.50
71208;DHT22;58938;49.868;8.646;2022-11-12T14:02:44;11.80;72.60
71208;DHT22;58938;49.868;8.646;2022-11-12T14:05:16;11.80;72.60
71208;DHT22;58938;49.868;8.646;2022-11-12T14:21:42;11.60;72.60
71208;DHT22;58938;49.868;8.646;2022-11-12T14:24:10;11.70;72.60
71208;DHT22;58938;49.868;8.646;2022-11-12T14:26:38;11.70;72.70
71208;DHT22;58938;49.868;8.646;2022-11-12T14:29:04;11.70;72.70
71208;DHT22;58938;49.868;8.646;2022-11-12T14:31:30;11.70;72.60
71208;DHT22;58938;49.868;8.646;2022-11-12T14:33:56;11.70;72.60
71208;DHT22;58938;49.868;8.646;2022-11-12T14:36:21;11.70;72.60
71208;DHT22;58938;49.868;8.646;2022-11-12T14:38:53;11.70;72.50
71208;DHT22;58938;49.868;8.646;2022-11-12T14:41:22;11.70;72.50
71208;DHT22;58938;49.868;8.646;2022-11-12T14:43:57;11.70;72.50
71208;DHT22;58938;49.868;8.646;2022-11-12T14:46:26;11.70;72.60
71208;DHT22;58938;49.868;8.646;2022-11-12T14:49:15;11.70;72.60
71208;DHT22;58938;49.868;8.646;2022-11-12T14:52:04;11.70;72.60
71208;DHT22;58938;49.868;8.646;2022-11-12T14:54:42;11.70;72.60
71208;DHT22;58938;49.868;8.646;2022-11-12T14:57:18;11.70;72.70
71208;DHT22;58938;49.868;8.646;2022-11-12T14:59:45;11.60;72.70
71208;DHT22;58938;49.868;8.646;2022-11-12T15:02:39;11.70;72.60
71208;DHT22;58938;49.868;8.646;2022-11-12T15:07:56;11.70;72.70
71208;DHT22;58938;49.868;8.646;2022-11-12T15:13:10;11.70;72.60
71208;DHT22;58938;49.868;8.646;2022-11-12T15:15:39;11.70;72.60
71208;DHT22;58938;49.868;8.646;2022-11-12T15:18:17;11.60;72.70
71208;DHT22;58938;49.868;8.646;2022-11-12T15:20:43;11.60;72.60
71208;DHT22;58938;49.868;8.646;2022-11-12T15:23:17;11.60;72.70
71208;DHT22;58938;49.868;8.646;2022-11-12T15:25:57;11.60;72.70
71208;DHT22;58938;49.868;8.646;2022-11-12T15:28:24;11.60;72.70
71208;DHT22;58938;49.868;8.646;2022-11-12T15:31:17;11.60;72.80
71208;DHT22;58938;49.868;8.646;2022-11-12T15:33:43;11.60;72.80
71208;DHT22;58938;49.868;8.646;2022-11-12T15:36:17;11.60;72.80
71208;DHT22;58938;49.868;8.646;2022-11-12T15:38:48;11.60;72.80
71208;DHT22;58938;49.868;8.646;2022-11-12T15:41:26;11.60;72.90
71208;DHT22;58938;49.868;8.646;2022-11-12T15:43:52;11.60;72.90
71208;DHT22;58938;49.868;8.646;2022-11-12T15:46:18;11.60;72.90
71208;DHT22;58938;49.868;8.646;2022-11-12T15:48:44;11.60;73.00
71208;DHT22;58938;49.868;8.646;2022-11-12T15:51:10;11.60;73.00
71208;DHT22;58938;49.868;8.646;2022-11-12T15:53:36;11.60;72.90
71208;DHT22;58938;49.868;8.646;2022-11-12T15:56:03;11.60;73.00
71208;DHT22;58938;49.868;8.646;2022-11-12T15:58:33;11.60;73.00
71208;DHT22;58938;49.868;8.646;2022-11-12T16:01:00;11.60;73.10
71208;DHT22;58938;49.868;8.646;2022-11-12T16:03:26;11.60;73.10
71208;DHT22;58938;49.868;8.646;2022-11-12T16:05:51;11.70;73.10
71208;DHT22;58938;49.868;8.646;2022-11-12T16:08:19;11.70;73.20
71208;DHT22;58938;49.868;8.646;2022-11-12T16:10:45;11.70;73.10
71208;DHT22;58938;49.868;8.646;2022-11-12T16:13:30;11.80;73.10
71208;DHT22;58938;49.868;8.646;2022-11-12T16:15:56;11.70;73.10
71208;DHT22;58938;49.868;8.646;2022-11-12T16:18:22;11.70;73.20
71208;DHT22;58938;49.868;8.646;2022-11-12T16:20:47;11.70;73.20
71208;DHT22;58938;49.868;8.646;2022-11-12T16:23:14;11.70;73.20
71208;DHT22;58938;49.868;8.646;2022-11-12T16:25:41;11.70;73.30
71208;DHT22;58938;49.868;8.646;2022-11-12T16:28:17;11.80;73.30
71208;DHT22;58938;49.868;8.646;2022-11-12T16:30:45;11.80;73.30
71208;DHT22;58938;49.868;8.646;2022-11-12T16:33:12;11.80;73.40
71208;DHT22;58938;49.868;8.646;2022-11-12T16:35:38;11.80;73.40
71208;DHT22;58938;49.868;8.646;2022-11-12T16:38:13;11.80;73.40
71208;DHT22;58938;49.868;8.646;2022-11-12T16:40:40;11.80;73.40
71208;DHT22;58938;49.868;8.646;2022-11-12T16:43:06;11.80;73.40
71208;DHT22;58938;49.868;8.646;2022-11-12T16:45:34;11.80;73.50
71208;DHT22;58938;49.868;8.646;2022-11-12T16:48:25;11.80;73.40
71208;DHT22;58938;49.868;8.646;2022-11-12T16:50:50;11.70;73.50
71208;DHT22;58938;49.868;8.646;2022-11-12T16:53:15;11.80;73.60
71208;DHT22;58938;49.868;8.646;2022-11-12T16:55:41;11.80;73.50
71208;DHT22;58938;49.868;8.646;2022-11-12T16:58:13;11.80;73.60
71208;DHT22;58938;49.868;8.646;2022-11-12T17:00:40;11.80;73.60
71208;DHT22;58938;49.868;8.646;2022-11-12T17:03:11;11.70;73.60
71208;DHT22;58938;49.868;8.646;2022-11-12T17:05:37;11.80;73.70
71208;DHT22;58938;49.868;8.646;2022-11-12T17:08:02;11.80;73.70
71208;DHT22;58938;49.868;8.646;2022-11-12T17:10:29;11.80;73.70
71208;DHT22;58938;49.868;8.646;2022-11-12T17:12:54;11.70;73.70
71208;DHT22;58938;49.868;8.646;2022-11-12T17:15:20;11.70;73.80
71208;DHT22;58938;49.868;8.646;2022-11-12T17:17:45;11.70;73.70
71208;DHT22;58938;49.868;8.646;2022-11-12T17:20:11;11.70;73.70
71208;DHT22;58938;49.868;8.646;2022-11-12T17:22:36;11.70;73.70
71208;DHT22;58938;49.868;8.646;2022-11-12T17:25:03;11.70;73.70
71208;DHT22;58938;49.868;8.646;2022-11-12T17:27:28;11.70;73.70
71208;DHT22;58938;49.868;8.646;2022-11-12T17:29:54;11.70;73.70
71208;DHT22;58938;49.868;8.646;2022-11-12T17:32:20;11.60;73.70
71208;DHT22;58938;49.868;8.646;2022-11-12T17:34:45;11.60;73.70
71208;DHT22;58938;49.868;8.646;2022-11-12T17:37:11;11.70;73.70
71208;DHT22;58938;49.868;8.646;2022-11-12T17:39:36;11.70;73.70
71208;DHT22;58938;49.868;8.646;2022-11-12T17:42:02;11.60;73.70
71208;DHT22;58938;49.868;8.646;2022-11-12T17:44:28;11.70;73.60
71208;DHT22;58938;49.868;8.646;2022-11-12T17:46:53;11.70;73.70
71208;DHT22;58938;49.868;8.646;2022-11-12T17:49:19;11.70;73.70
71208;DHT22;58938;49.868;8.646;2022-11-12T17:51:44;11.60;73.60
71208;DHT22;58938;49.868;8.646;2022-11-12T17:54:10;11.60;73.60
71208;DHT22;58938;49.868;8.646;2022-11-12T17:56:35;11.60;73.40
71208;DHT22;58938;49.868;8.646;2022-11-12T17:59:01;11.60;73.50
71208;DHT22;58938;49.868;8.646;2022-11-12T18:01:29;11.60;73.40
71208;DHT22;58938;49.868;8.646;2022-11-12T18:03:56;11.60;73.50